sensor_id;sensor_type;location;lat;lon;timestamp;pressure;altitude;pressure_sealevel;temperature;humidity
54856;BME280;40748;53.168;5.800;2023-02-27T00:04:55;103027.23000000001;;;1.36;65.91
54856;BME280;40748;53.168;5.800;2023-02-27T00:09:55;103028.16;;;1.38;66.33
54856;BME280;40748;53.168;5.800;2023-02-27T00:12:25;103032.24;;;1.39;66.41
54856;BME280;40748;53.168;5.800;2023-02-27T00:14:55;103035.81999999999;;;1.38;66.29
54856;BME280;40748;53.168;5.800;2023-02-27T00:17:25;103035.22;;;1.39;66.23
54856;BME280;40748;53.168;5.800;2023-02-27T00:19:55;103038.1;;;1.38;66.33
54856;BME280;40748;53.168;5.800;2023-02-27T00:22:25;103035.38;;;1.40;66.34
54856;BME280;40748;53.168;5.800;2023-02-27T00:24:55;103036.69;;;1.41;66.39
54856;BME280;40748;53.168;5.800;2023-02-27T00:27:25;103036.76000000001;;;1.43;66.43
54856;BME280;40748;53.168;5.800;2023-02-27T00:29:55;103035.41;;;1.45;66.50
54856;BME280;40748;53.168;5.800;2023-02-27T00:34:55;103033.3;;;1.43;66.23
54856;BME280;40748;53.168;5.800;2023-02-27T00:37:25;103030.52;;;1.42;66.19
54856;BME280;40748;53.168;5.800;2023-02-27T00:42:25;103033.58;;;1.41;66.35
54856;BME280;40748;53.168;5.800;2023-02-27T00:44:55;103028.16;;;1.42;66.71
54856;BME280;40748;53.168;5.800;2023-02-27T00:47:25;103029.82999999999;;;1.43;66.74
54856;BME280;40748;53.168;5.800;2023-02-27T00:52:25;103029.13;;;1.40;66.61
54856;BME280;40748;53.168;5.800;2023-02-27T00:54:55;103026.16;;;1.35;66.42
54856;BME280;40748;53.168;5.800;2023-02-27T00:57:25;103032.76000000001;;;1.31;66.32
54856;BME280;40748;53.168;5.800;2023-02-27T00:59:55;103032.25;;;1.27;66.32
54856;BME280;40748;53.168;5.800;2023-02-27T01:02:25;103025.71;;;1.21;66.33
54856;BME280;40748;53.168;5.800;2023-02-27T01:04:55;103026.28;;;1.17;66.34
54856;BME280;40748;53.168;5.800;2023-02-27T01:07:25;103029.81;;;1.12;66.34
54856;BME280;40748;53.168;5.800;2023-02-27T01:09:55;103031.87000000001;;;1.07;66.23
54856;BME280;40748;53.168;5.800;2023-02-27T01:12:25;103032.04000000001;;;1.02;66.26
54856;BME280;40748;53.168;5.800;2023-02-27T01:14:55;103032.39000000001;;;0.97;66.16
54856;BME280;40748;53.168;5.800;2023-02-27T01:17:25;103038.38;;;0.92;66.20
54856;BME280;40748;53.168;5.800;2023-02-27T01:19:55;103040.88999999998;;;0.89;66.20
54856;BME280;40748;53.168;5.800;2023-02-27T01:22:25;103037.55000000002;;;0.84;66.16
54856;BME280;40748;53.168;5.800;2023-02-27T01:24:55;103040.24999999999;;;0.80;66.17
54856;BME280;40748;53.168;5.800;2023-02-27T01:27:25;103040.15;;;0.76;66.17
54856;BME280;40748;53.168;5.800;2023-02-27T01:29:55;103040.06;;;0.73;66.19
54856;BME280;40748;53.168;5.800;2023-02-27T01:32:25;103042.19;;;0.71;66.41
54856;BME280;40748;53.168;5.800;2023-02-27T01:34:55;103038.66;;;0.67;66.33
54856;BME280;40748;53.168;5.800;2023-02-27T01:37:25;103041.43999999999;;;0.64;66.29
54856;BME280;40748;53.168;5.800;2023-02-27T01:39:55;103042.68999999999;;;0.62;66.36
54856;BME280;40748;53.168;5.800;2023-02-27T01:42:26;103042.29000000001;;;0.58;66.36
54856;BME280;40748;53.168;5.800;2023-02-27T01:47:25;103040.59;;;0.52;66.38
54856;BME280;40748;53.168;5.800;2023-02-27T01:49:55;103036.90999999999;;;0.49;66.33
54856;BME280;40748;53.168;5.800;2023-02-27T01:52:25;103032.70999999999;;;0.48;66.38
54856;BME280;40748;53.168;5.800;2023-02-27T01:54:55;103038.04000000001;;;0.46;66.37
54856;BME280;40748;53.168;5.800;2023-02-27T01:57:25;103042.14;;;0.45;66.36
54856;BME280;40748;53.168;5.800;2023-02-27T01:59:55;103036.65000000001;;;0.43;66.40
54856;BME280;40748;53.168;5.800;2023-02-27T02:02:27;103036.84000000001;;;0.41;66.72
54856;BME280;40748;53.168;5.800;2023-02-27T02:04:55;103036.87;;;0.42;67.29
54856;BME280;40748;53.168;5.800;2023-02-27T02:07:25;103035.21;;;0.44;67.48
54856;BME280;40748;53.168;5.800;2023-02-27T02:09:56;103037.26;;;0.46;67.76
54856;BME280;40748;53.168;5.800;2023-02-27T02:14:55;103040.75;;;0.45;67.34
54856;BME280;40748;53.168;5.800;2023-02-27T02:17:27;103035.33;;;0.46;67.43
54856;BME280;40748;53.168;5.800;2023-02-27T02:20:06;103036.71999999999;;;0.45;67.21
54856;BME280;40748;53.168;5.800;2023-02-27T02:25:01;103033.42;;;0.44;67.01
54856;BME280;40748;53.168;5.800;2023-02-27T02:30:11;103032.87;;;0.43;66.86
54856;BME280;40748;53.168;5.800;2023-02-27T02:35:04;103031.04000000001;;;0.42;66.67
54856;BME280;40748;53.168;5.800;2023-02-27T02:37:34;103032.09;;;0.41;66.66
54856;BME280;40748;53.168;5.800;2023-02-27T02:39:58;103029.48;;;0.40;66.65
54856;BME280;40748;53.168;5.800;2023-02-27T02:42:26;103029.54;;;0.41;66.82
54856;BME280;40748;53.168;5.800;2023-02-27T02:44:56;103032.69;;;0.42;66.76
54856;BME280;40748;53.168;5.800;2023-02-27T02:47:27;103033.22;;;0.43;66.70
54856;BME280;40748;53.168;5.800;2023-02-27T02:52:26;103022.25000000001;;;0.42;66.67
54856;BME280;40748;53.168;5.800;2023-02-27T02:54:56;103020.45000000001;;;0.41;66.68
54856;BME280;40748;53.168;5.800;2023-02-27T03:02:26;103017.11;;;0.39;66.80
54856;BME280;40748;53.168;5.800;2023-02-27T03:04:56;103015.81000000001;;;0.36;67.16
54856;BME280;40748;53.168;5.800;2023-02-27T03:07:26;103013.68;;;0.37;67.88
54856;BME280;40748;53.168;5.800;2023-02-27T03:09:56;103012.01000000001;;;0.36;67.91
54856;BME280;40748;53.168;5.800;2023-02-27T03:12:25;103011.45;;;0.35;67.83
54856;BME280;40748;53.168;5.800;2023-02-27T03:14:56;103010.45;;;0.33;67.87
54856;BME280;40748;53.168;5.800;2023-02-27T03:17:26;103008.14;;;0.32;67.77
54856;BME280;40748;53.168;5.800;2023-02-27T03:19:55;103009.56000000001;;;0.28;67.60
54856;BME280;40748;53.168;5.800;2023-02-27T03:22:26;103008.17;;;0.26;67.43
54856;BME280;40748;53.168;5.800;2023-02-27T03:24:56;103004.69;;;0.23;67.45
54856;BME280;40748;53.168;5.800;2023-02-27T03:27:27;103008.06;;;0.20;67.42
54856;BME280;40748;53.168;5.800;2023-02-27T03:29:56;103010.25;;;0.17;67.42
54856;BME280;40748;53.168;5.800;2023-02-27T03:32:28;103007.78;;;0.16;67.72
54856;BME280;40748;53.168;5.800;2023-02-27T03:39:58;103015.5;;;0.14;67.87
54856;BME280;40748;53.168;5.800;2023-02-27T03:42:28;103015.78;;;0.12;67.95
54856;BME280;40748;53.168;5.800;2023-02-27T03:44:57;103020.65;;;0.09;67.76
54856;BME280;40748;53.168;5.800;2023-02-27T03:47:25;103023.68;;;0.07;67.68
54856;BME280;40748;53.168;5.800;2023-02-27T03:54:56;103037.89;;;0.08;68.15
54856;BME280;40748;53.168;5.800;2023-02-27T03:57:25;103045.89000000001;;;0.12;68.24
54856;BME280;40748;53.168;5.800;2023-02-27T03:59:55;103045.89000000001;;;0.17;68.30
54856;BME280;40748;53.168;5.800;2023-02-27T04:02:25;103048.99;;;0.21;68.40
54856;BME280;40748;53.168;5.800;2023-02-27T04:04:55;103048.99;;;0.24;68.45
54856;BME280;40748;53.168;5.800;2023-02-27T04:07:27;103052.25;;;0.26;69.44
54856;BME280;40748;53.168;5.800;2023-02-27T04:10:11;103052.25;;;0.28;69.44
54856;BME280;40748;53.168;5.800;2023-02-27T04:12:29;103050.83;;;0.35;69.77
54856;BME280;40748;53.168;5.800;2023-02-27T04:14:59;103052.45;;;0.42;69.74
54856;BME280;40748;53.168;5.800;2023-02-27T04:17:25;103058.25;;;0.47;69.45
54856;BME280;40748;53.168;5.800;2023-02-27T04:22:29;103061.28000000001;;;0.49;69.38
54856;BME280;40748;53.168;5.800;2023-02-27T04:24:57;103055.58000000002;;;0.52;69.54
54856;BME280;40748;53.168;5.800;2023-02-27T04:27:27;103062.5;;;0.56;69.49
54856;BME280;40748;53.168;5.800;2023-02-27T04:29:56;103063.78;;;0.60;69.43
54856;BME280;40748;53.168;5.800;2023-02-27T04:32:28;103069.19;;;0.63;69.43
54856;BME280;40748;53.168;5.800;2023-02-27T04:34:55;103069.84999999999;;;0.66;69.37
54856;BME280;40748;53.168;5.800;2023-02-27T04:37:27;103072.81;;;0.69;69.37
54856;BME280;40748;53.168;5.800;2023-02-27T04:39:55;103071.40999999999;;;0.71;69.33
54856;BME280;40748;53.168;5.800;2023-02-27T04:42:26;103075.01;;;0.74;69.31
54856;BME280;40748;53.168;5.800;2023-02-27T04:44:56;103074.82;;;0.75;69.21
54856;BME280;40748;53.168;5.800;2023-02-27T04:47:26;103076.16;;;0.79;69.14
54856;BME280;40748;53.168;5.800;2023-02-27T04:49:56;103077.6;;;0.80;69.06
54856;BME280;40748;53.168;5.800;2023-02-27T04:52:26;103082.69;;;0.82;69.04
54856;BME280;40748;53.168;5.800;2023-02-27T04:54:57;103079.01999999999;;;0.77;69.03
54856;BME280;40748;53.168;5.800;2023-02-27T04:57:26;103084.14;;;0.81;69.02
54856;BME280;40748;53.168;5.800;2023-02-27T04:59:55;103085.67;;;0.84;69.16
54856;BME280;40748;53.168;5.800;2023-02-27T05:02:25;103085.57;;;0.85;68.88
54856;BME280;40748;53.168;5.800;2023-02-27T05:04:56;103091.56;;;0.86;68.75
54856;BME280;40748;53.168;5.800;2023-02-27T05:14:57;103095.83;;;0.87;68.45
54856;BME280;40748;53.168;5.800;2023-02-27T05:17:26;103099.11;;;0.88;68.42
54856;BME280;40748;53.168;5.800;2023-02-27T05:22:26;103102.91;;;0.87;68.63
54856;BME280;40748;53.168;5.800;2023-02-27T05:24:57;103106.69;;;0.91;68.86
54856;BME280;40748;53.168;5.800;2023-02-27T05:27:28;103112.77;;;0.92;69.05
54856;BME280;40748;53.168;5.800;2023-02-27T05:29:57;103115.49;;;0.93;69.24
54856;BME280;40748;53.168;5.800;2023-02-27T05:34:56;103114.95;;;0.90;69.22
54856;BME280;40748;53.168;5.800;2023-02-27T05:37:27;103112.98999999999;;;0.89;69.39
54856;BME280;40748;53.168;5.800;2023-02-27T05:39:55;103113.71999999999;;;0.86;69.21
54856;BME280;40748;53.168;5.800;2023-02-27T05:42:25;103113.71999999999;;;0.83;69.15
54856;BME280;40748;53.168;5.800;2023-02-27T05:44:56;103113.98;;;0.79;69.27
54856;BME280;40748;53.168;5.800;2023-02-27T05:47:26;103116.1;;;0.77;69.38
54856;BME280;40748;53.168;5.800;2023-02-27T05:49:56;103118.64;;;0.75;69.44
54856;BME280;40748;53.168;5.800;2023-02-27T05:52:25;103122.07;;;0.72;69.38
54856;BME280;40748;53.168;5.800;2023-02-27T05:54:56;103122.29999999999;;;0.68;69.58
54856;BME280;40748;53.168;5.800;2023-02-27T05:57:26;103122.84;;;0.66;69.67
54856;BME280;40748;53.168;5.800;2023-02-27T05:59:57;103121.41999999998;;;0.64;69.59
54856;BME280;40748;53.168;5.800;2023-02-27T06:02:25;103120.48;;;0.62;69.52
54856;BME280;40748;53.168;5.800;2023-02-27T06:04:55;103121.22;;;0.59;69.43
54856;BME280;40748;53.168;5.800;2023-02-27T06:07:25;103125.01;;;0.57;69.27
54856;BME280;40748;53.168;5.800;2023-02-27T06:09:55;103114.06999999999;;;0.56;69.14
54856;BME280;40748;53.168;5.800;2023-02-27T06:12:25;103117.13;;;0.53;69.03
54856;BME280;40748;53.168;5.800;2023-02-27T06:14:55;103121.40999999999;;;0.49;68.90
54856;BME280;40748;53.168;5.800;2023-02-27T06:17:25;103117.63;;;0.47;68.82
54856;BME280;40748;53.168;5.800;2023-02-27T06:19:55;103117.48;;;0.44;68.90
54856;BME280;40748;53.168;5.800;2023-02-27T06:22:25;103118.86;;;0.40;68.95
54856;BME280;40748;53.168;5.800;2023-02-27T06:24:55;103122.27;;;0.37;69.05
54856;BME280;40748;53.168;5.800;2023-02-27T06:27:25;103127.23000000001;;;0.36;69.29
54856;BME280;40748;53.168;5.800;2023-02-27T06:29:55;103129.14000000001;;;0.35;69.22
54856;BME280;40748;53.168;5.800;2023-02-27T06:32:25;103127.33;;;0.33;69.58
54856;BME280;40748;53.168;5.800;2023-02-27T06:39:55;103140.72000000002;;;0.32;69.38
54856;BME280;40748;53.168;5.800;2023-02-27T06:52:25;103151.34000000001;;;0.35;69.16
54856;BME280;40748;53.168;5.800;2023-02-27T06:54:55;103152.42000000001;;;0.37;69.13
54856;BME280;40748;53.168;5.800;2023-02-27T06:57:25;103157.36;;;0.40;69.15
54856;BME280;40748;53.168;5.800;2023-02-27T06:59:55;103158.22;;;0.42;69.17
54856;BME280;40748;53.168;5.800;2023-02-27T07:02:25;103159.27999999998;;;0.46;69.18
54856;BME280;40748;53.168;5.800;2023-02-27T07:04:55;103166.65000000001;;;0.49;69.18
54856;BME280;40748;53.168;5.800;2023-02-27T07:07:25;103166.17000000001;;;0.54;69.19
54856;BME280;40748;53.168;5.800;2023-02-27T07:09:55;103171.2;;;0.59;69.20
54856;BME280;40748;53.168;5.800;2023-02-27T07:12:25;103171.53000000001;;;0.65;69.19
54856;BME280;40748;53.168;5.800;2023-02-27T07:14:55;103174.71;;;0.70;69.16
54856;BME280;40748;53.168;5.800;2023-02-27T07:17:25;103177.61;;;0.75;69.16
54856;BME280;40748;53.168;5.800;2023-02-27T07:19:55;103177.78000000001;;;0.80;69.12
54856;BME280;40748;53.168;5.800;2023-02-27T07:22:25;103181.87000000001;;;0.86;69.07
54856;BME280;40748;53.168;5.800;2023-02-27T07:24:55;103181.87000000001;;;0.92;69.08
54856;BME280;40748;53.168;5.800;2023-02-27T07:27:25;103187.59999999999;;;0.99;69.61
54856;BME280;40748;53.168;5.800;2023-02-27T07:29:55;103190.23;;;1.06;69.79
54856;BME280;40748;53.168;5.800;2023-02-27T07:32:25;103191.72000000002;;;1.13;69.71
54856;BME280;40748;53.168;5.800;2023-02-27T07:34:55;103195.39;;;1.22;69.86
54856;BME280;40748;53.168;5.800;2023-02-27T07:37:25;103194.18000000001;;;1.32;69.86
54856;BME280;40748;53.168;5.800;2023-02-27T07:39:55;103200.61;;;1.42;70.02
54856;BME280;40748;53.168;5.800;2023-02-27T07:42:25;103205.36;;;1.54;70.12
54856;BME280;40748;53.168;5.800;2023-02-27T07:44:55;103205.74999999999;;;1.71;70.22
54856;BME280;40748;53.168;5.800;2023-02-27T07:47:25;103203.59000000001;;;2.05;70.98
54856;BME280;40748;53.168;5.800;2023-02-27T07:49:55;103207.59000000001;;;2.56;72.58
54856;BME280;40748;53.168;5.800;2023-02-27T07:52:25;103207.59000000001;;;3.15;74.33
54856;BME280;40748;53.168;5.800;2023-02-27T07:54:55;103209.5;;;3.84;76.49
54856;BME280;40748;53.168;5.800;2023-02-27T07:57:25;103209.5;;;4.56;78.75
54856;BME280;40748;53.168;5.800;2023-02-27T07:59:55;103206.91999999998;;;5.31;80.90
54856;BME280;40748;53.168;5.800;2023-02-27T08:02:25;103212.39;;;6.07;82.75
54856;BME280;40748;53.168;5.800;2023-02-27T08:04:55;103203.7;;;6.78;84.44
54856;BME280;40748;53.168;5.800;2023-02-27T08:07:25;103209.47000000002;;;7.42;85.52
54856;BME280;40748;53.168;5.800;2023-02-27T08:09:55;103214.18000000001;;;8.03;86.16
54856;BME280;40748;53.168;5.800;2023-02-27T08:12:25;103215.60999999999;;;8.64;86.97
54856;BME280;40748;53.168;5.800;2023-02-27T08:14:55;103214.14;;;9.25;87.72
54856;BME280;40748;53.168;5.800;2023-02-27T08:17:25;103222.49999999999;;;9.73;88.08
54856;BME280;40748;53.168;5.800;2023-02-27T08:19:55;103222.97000000002;;;10.19;87.05
54856;BME280;40748;53.168;5.800;2023-02-27T08:22:25;103210.31;;;10.73;87.24
54856;BME280;40748;53.168;5.800;2023-02-27T08:24:55;103215.84;;;11.16;87.90
54856;BME280;40748;53.168;5.800;2023-02-27T08:27:25;103215.45000000001;;;11.29;86.66
54856;BME280;40748;53.168;5.800;2023-02-27T08:29:55;103218.87;;;11.22;84.62
54856;BME280;40748;53.168;5.800;2023-02-27T08:32:25;103218.59999999999;;;11.05;82.74
54856;BME280;40748;53.168;5.800;2023-02-27T08:34:55;103221.28;;;10.87;80.48
54856;BME280;40748;53.168;5.800;2023-02-27T08:37:25;103221.28;;;10.72;80.48
54856;BME280;40748;53.168;5.800;2023-02-27T08:39:55;103225.44;;;10.62;79.76
54856;BME280;40748;53.168;5.800;2023-02-27T08:42:25;103229.08;;;10.52;79.24
54856;BME280;40748;53.168;5.800;2023-02-27T08:44:55;103227.14000000001;;;10.43;78.63
54856;BME280;40748;53.168;5.800;2023-02-27T08:47:25;103223.47;;;10.33;77.79
54856;BME280;40748;53.168;5.800;2023-02-27T08:49:55;103224.67;;;10.22;77.04
54856;BME280;40748;53.168;5.800;2023-02-27T08:52:25;103233.97;;;10.11;76.25
54856;BME280;40748;53.168;5.800;2023-02-27T08:54:55;103236.9;;;10.02;75.71
54856;BME280;40748;53.168;5.800;2023-02-27T08:57:25;103237.62;;;9.95;75.12
54856;BME280;40748;53.168;5.800;2023-02-27T08:59:55;103237.79;;;9.89;74.73
54856;BME280;40748;53.168;5.800;2023-02-27T09:02:25;103232.62999999999;;;9.87;74.46
54856;BME280;40748;53.168;5.800;2023-02-27T09:04:55;103236.12000000001;;;9.83;74.32
54856;BME280;40748;53.168;5.800;2023-02-27T09:07:25;103233.45;;;9.81;73.98
54856;BME280;40748;53.168;5.800;2023-02-27T09:09:55;103236.01000000001;;;9.79;73.79
54856;BME280;40748;53.168;5.800;2023-02-27T09:12:25;103242.5;;;9.77;73.33
54856;BME280;40748;53.168;5.800;2023-02-27T09:14:55;103241.03;;;9.73;73.07
54856;BME280;40748;53.168;5.800;2023-02-27T09:17:25;103243.51999999999;;;9.67;72.83
54856;BME280;40748;53.168;5.800;2023-02-27T09:19:55;103246.09;;;9.61;72.55
54856;BME280;40748;53.168;5.800;2023-02-27T09:22:25;103247.72;;;9.58;72.30
54856;BME280;40748;53.168;5.800;2023-02-27T09:24:55;103251.07;;;9.57;72.38
54856;BME280;40748;53.168;5.800;2023-02-27T09:27:25;103250.84999999999;;;9.55;72.15
54856;BME280;40748;53.168;5.800;2023-02-27T09:29:55;103253.87000000001;;;9.62;72.19
54856;BME280;40748;53.168;5.800;2023-02-27T09:32:25;103252.77;;;9.67;72.19
54856;BME280;40748;53.168;5.800;2023-02-27T09:34:55;103248.55;;;9.70;72.08
54856;BME280;40748;53.168;5.800;2023-02-27T09:37:25;103251.14000000001;;;9.75;72.02
54856;BME280;40748;53.168;5.800;2023-02-27T09:39:55;103251.01;;;9.78;71.92
54856;BME280;40748;53.168;5.800;2023-02-27T09:42:26;103247.46;;;9.82;72.01
54856;BME280;40748;53.168;5.800;2023-02-27T09:44:55;103242.04;;;9.89;71.95
54856;BME280;40748;53.168;5.800;2023-02-27T09:47:27;103247.67;;;9.99;71.91
54856;BME280;40748;53.168;5.800;2023-02-27T09:49:57;103246.79000000001;;;10.10;71.48
54856;BME280;40748;53.168;5.800;2023-02-27T09:52:26;103251.32;;;10.08;71.90
54856;BME280;40748;53.168;5.800;2023-02-27T09:54:55;103250.21999999999;;;10.21;69.68
54856;BME280;40748;53.168;5.800;2023-02-27T09:57:28;103244.68;;;10.34;72.17
54856;BME280;40748;53.168;5.800;2023-02-27T09:59:57;103240.92000000001;;;10.39;71.81
54856;BME280;40748;53.168;5.800;2023-02-27T10:02:29;103244.63;;;10.35;71.71
54856;BME280;40748;53.168;5.800;2023-02-27T10:04:56;103242.96999999999;;;10.25;71.55
54856;BME280;40748;53.168;5.800;2023-02-27T10:07:26;103242.5;;;10.21;71.01
54856;BME280;40748;53.168;5.800;2023-02-27T10:09:58;103240.75;;;10.25;69.58
54856;BME280;40748;53.168;5.800;2023-02-27T10:12:31;103239.82;;;9.86;70.23
54856;BME280;40748;53.168;5.800;2023-02-27T10:14:56;103244.89000000001;;;9.66;68.31
54856;BME280;40748;53.168;5.800;2023-02-27T10:17:26;103247.85999999999;;;9.54;68.66
54856;BME280;40748;53.168;5.800;2023-02-27T10:19:55;103249.90000000001;;;9.60;68.13
54856;BME280;40748;53.168;5.800;2023-02-27T10:22:26;103251.42000000001;;;9.64;69.07
54856;BME280;40748;53.168;5.800;2023-02-27T10:24:57;103252.72;;;9.77;69.26
54856;BME280;40748;53.168;5.800;2023-02-27T10:27:25;103254.02999999998;;;9.89;68.81
54856;BME280;40748;53.168;5.800;2023-02-27T10:29:57;103256.37;;;9.83;68.47
54856;BME280;40748;53.168;5.800;2023-02-27T10:32:26;103255.42;;;9.99;69.53
54856;BME280;40748;53.168;5.800;2023-02-27T10:34:58;103249.84999999999;;;10.19;69.59
54856;BME280;40748;53.168;5.800;2023-02-27T10:37:25;103254.6;;;10.32;69.67
54856;BME280;40748;53.168;5.800;2023-02-27T10:39:56;103254.36;;;10.19;69.19
54856;BME280;40748;53.168;5.800;2023-02-27T10:42:26;103258.35999999999;;;10.18;67.19
54856;BME280;40748;53.168;5.800;2023-02-27T10:44:55;103256.41;;;10.09;68.32
54856;BME280;40748;53.168;5.800;2023-02-27T10:47:25;103253.37;;;10.08;67.12
54856;BME280;40748;53.168;5.800;2023-02-27T10:49:55;103254.14000000001;;;9.73;67.56
54856;BME280;40748;53.168;5.800;2023-02-27T10:52:25;103255.22;;;9.90;67.99
54856;BME280;40748;53.168;5.800;2023-02-27T10:54:55;103250.05000000002;;;10.40;69.44
54856;BME280;40748;53.168;5.800;2023-02-27T10:57:26;103253.10999999999;;;11.13;70.90
54856;BME280;40748;53.168;5.800;2023-02-27T10:59:57;103255.04000000001;;;11.99;72.11
54856;BME280;40748;53.168;5.800;2023-02-27T11:02:28;103251.01;;;12.84;74.92
54856;BME280;40748;53.168;5.800;2023-02-27T11:04:56;103247.56;;;13.27;75.78
54856;BME280;40748;53.168;5.800;2023-02-27T11:07:27;103246.02;;;13.99;71.35
54856;BME280;40748;53.168;5.800;2023-02-27T11:10:00;103243.75;;;14.62;70.12
54856;BME280;40748;53.168;5.800;2023-02-27T11:12:26;103252.38999999998;;;15.14;71.50
54856;BME280;40748;53.168;5.800;2023-02-27T11:14:56;103243.4;;;15.86;72.46
54856;BME280;40748;53.168;5.800;2023-02-27T11:17:26;103235.62;;;16.07;73.94
54856;BME280;40748;53.168;5.800;2023-02-27T11:19:56;103231.34999999999;;;16.29;67.10
54856;BME280;40748;53.168;5.800;2023-02-27T11:22:26;103237.05;;;17.20;71.89
54856;BME280;40748;53.168;5.800;2023-02-27T11:27:26;103229.25;;;17.79;67.29
54856;BME280;40748;53.168;5.800;2023-02-27T11:29:56;103226.09999999999;;;18.14;69.30
54856;BME280;40748;53.168;5.800;2023-02-27T11:32:25;103224.51000000001;;;18.02;64.63
54856;BME280;40748;53.168;5.800;2023-02-27T11:34:55;103221.53000000001;;;18.40;66.25
54856;BME280;40748;53.168;5.800;2023-02-27T11:37:26;103215.24999999999;;;18.34;66.98
54856;BME280;40748;53.168;5.800;2023-02-27T11:39:58;103213.71999999999;;;18.93;63.26
54856;BME280;40748;53.168;5.800;2023-02-27T11:42:27;103216.91;;;19.20;66.82
54856;BME280;40748;53.168;5.800;2023-02-27T11:44:56;103211.26999999999;;;19.15;65.17
54856;BME280;40748;53.168;5.800;2023-02-27T11:47:26;103203.44;;;18.85;59.14
54856;BME280;40748;53.168;5.800;2023-02-27T11:52:27;103208.8;;;19.38;62.93
54856;BME280;40748;53.168;5.800;2023-02-27T11:54:56;103206.46999999999;;;19.01;61.20
54856;BME280;40748;53.168;5.800;2023-02-27T11:57:26;103196.66;;;19.36;56.49
54856;BME280;40748;53.168;5.800;2023-02-27T11:59:56;103199.54000000001;;;19.29;59.16
54856;BME280;40748;53.168;5.800;2023-02-27T12:02:27;103190.84;;;18.25;58.46
54856;BME280;40748;53.168;5.800;2023-02-27T12:04:56;103186.72999999998;;;19.09;47.87
54856;BME280;40748;53.168;5.800;2023-02-27T12:07:27;103185.6;;;19.12;56.73
54856;BME280;40748;53.168;5.800;2023-02-27T12:09:58;103182.70999999999;;;19.78;56.97
54856;BME280;40748;53.168;5.800;2023-02-27T12:12:27;103188.75;;;20.10;55.90
54856;BME280;40748;53.168;5.800;2023-02-27T12:14:57;103191.46;;;19.54;56.12
54856;BME280;40748;53.168;5.800;2023-02-27T12:17:26;103191.41;;;19.83;56.65
54856;BME280;40748;53.168;5.800;2023-02-27T12:20:00;103193.31999999999;;;19.90;55.04
54856;BME280;40748;53.168;5.800;2023-02-27T12:22:26;103191.42;;;19.84;54.40
54856;BME280;40748;53.168;5.800;2023-02-27T12:24:56;103191.7;;;18.64;55.13
54856;BME280;40748;53.168;5.800;2023-02-27T12:27:28;103189.5;;;18.83;48.93
54856;BME280;40748;53.168;5.800;2023-02-27T12:29:57;103184.5;;;17.99;47.20
54856;BME280;40748;53.168;5.800;2023-02-27T12:32:27;103182.6;;;18.49;50.60
54856;BME280;40748;53.168;5.800;2023-02-27T12:34:57;103190.23;;;18.24;50.51
54856;BME280;40748;53.168;5.800;2023-02-27T12:37:26;103187.57;;;19.28;47.85
54856;BME280;40748;53.168;5.800;2023-02-27T12:39:57;103196.17000000001;;;19.12;50.77
54856;BME280;40748;53.168;5.800;2023-02-27T12:45:01;103184.61;;;19.17;47.47
54856;BME280;40748;53.168;5.800;2023-02-27T12:47:27;103186.51999999999;;;18.86;45.99
54856;BME280;40748;53.168;5.800;2023-02-27T12:49:57;103183.87;;;19.42;45.60
54856;BME280;40748;53.168;5.800;2023-02-27T12:52:31;103178.10999999999;;;19.10;48.25
54856;BME280;40748;53.168;5.800;2023-02-27T12:54:58;103178.10999999999;;;19.78;48.25
54856;BME280;40748;53.168;5.800;2023-02-27T12:57:27;103183.45;;;19.44;48.83
54856;BME280;40748;53.168;5.800;2023-02-27T12:59:58;103178.42000000001;;;19.11;47.73
54856;BME280;40748;53.168;5.800;2023-02-27T13:02:29;103172.0;;;19.86;40.70
54856;BME280;40748;53.168;5.800;2023-02-27T13:04:57;103175.77000000002;;;19.45;47.59
54856;BME280;40748;53.168;5.800;2023-02-27T13:07:27;103177.16;;;19.20;45.36
54856;BME280;40748;53.168;5.800;2023-02-27T13:09:56;103180.81999999999;;;18.42;45.09
54856;BME280;40748;53.168;5.800;2023-02-27T13:12:27;103180.81999999999;;;18.55;44.92
54856;BME280;40748;53.168;5.800;2023-02-27T13:14:56;103182.76000000001;;;18.49;45.81
54856;BME280;40748;53.168;5.800;2023-02-27T13:17:27;103180.85;;;18.91;39.93
54856;BME280;40748;53.168;5.800;2023-02-27T13:19:56;103184.94;;;19.15;45.91
54856;BME280;40748;53.168;5.800;2023-02-27T13:22:28;103178.59000000001;;;19.42;45.77
54856;BME280;40748;53.168;5.800;2023-02-27T13:24:56;103179.42;;;18.98;46.62
54856;BME280;40748;53.168;5.800;2023-02-27T13:27:26;103179.71;;;18.85;43.96
54856;BME280;40748;53.168;5.800;2023-02-27T13:29:59;103185.06;;;18.90;44.90
54856;BME280;40748;53.168;5.800;2023-02-27T13:32:27;103180.70999999999;;;19.51;45.23
54856;BME280;40748;53.168;5.800;2023-02-27T13:34:56;103181.36;;;18.53;43.95
54856;BME280;40748;53.168;5.800;2023-02-27T13:39:55;103178.05;;;18.53;43.87
54856;BME280;40748;53.168;5.800;2023-02-27T13:44:56;103178.14000000001;;;18.13;42.78
54856;BME280;40748;53.168;5.800;2023-02-27T13:47:35;103183.61;;;18.77;43.73
54856;BME280;40748;53.168;5.800;2023-02-27T13:49:55;103182.46999999999;;;18.51;43.75
54856;BME280;40748;53.168;5.800;2023-02-27T13:52:27;103180.22;;;18.66;43.51
54856;BME280;40748;53.168;5.800;2023-02-27T13:54:55;103176.03;;;17.76;43.91
54856;BME280;40748;53.168;5.800;2023-02-27T13:57:25;103174.65999999999;;;18.63;43.36
54856;BME280;40748;53.168;5.800;2023-02-27T13:59:56;103178.41;;;17.49;42.85
54856;BME280;40748;53.168;5.800;2023-02-27T14:02:28;103169.64;;;17.50;38.01